sensor_id;sensor_type;location;lat;lon;timestamp;P1;durP1;ratioP1;P2;durP2;ratioP2
9799;SDS011;4939;52.00085300;4.17406100;2023-06-10T00:01:36;12.75;;;9.70;;
9799;SDS011;4939;52.00085300;4.17406100;2023-06-10T00:04:02;15.40;;;9.55;;
9799;SDS011;4939;52.00085300;4.17406100;2023-06-10T00:06:29;14.32;;;9.40;;
9799;SDS011;4939;52.00085300;4.17406100;2023-06-10T00:09:02;14.15;;;9.75;;
9799;SDS011;4939;52.00085300;4.17406100;2023-06-10T00:11:31;12.23;;;9.63;;
9799;SDS011;4939;52.00085300;4.17406100;2023-06-10T00:13:57;16.00;;;9.77;;
9799;SDS011;4939;52.00085300;4.17406100;2023-06-10T00:16:23;13.68;;;9.77;;
9799;SDS011;4939;52.00085300;4.17406100;2023-06-10T00:18:49;12.95;;;9.10;;
9799;SDS011;4939;52.00085300;4.17406100;2023-06-10T00:21:16;15.25;;;9.70;;
9799;SDS011;4939;52.00085300;4.17406100;2023-06-10T00:23:42;13.80;;;9.73;;
9799;SDS011;4939;52.00085300;4.17406100;2023-06-10T00:26:08;13.40;;;9.25;;
9799;SDS011;4939;52.00085300;4.17406100;2023-06-10T00:28:34;12.50;;;9.73;;
9799;SDS011;4939;52.00085300;4.17406100;2023-06-10T00:31:00;12.00;;;8.70;;
9799;SDS011;4939;52.00085300;4.17406100;2023-06-10T00:33:27;13.93;;;9.35;;
9799;SDS011;4939;52.00085300;4.17406100;2023-06-10T00:35:53;13.00;;;8.65;;
9799;SDS011;4939;52.00085300;4.17406100;2023-06-10T00:38:19;12.63;;;8.38;;
9799;SDS011;4939;52.00085300;4.17406100;2023-06-10T00:40:45;11.93;;;8.55;;
9799;SDS011;4939;52.00085300;4.17406100;2023-06-10T00:43:11;14.80;;;8.88;;
9799;SDS011;4939;52.00085300;4.17406100;2023-06-10T00:45:36;11.82;;;8.77;;
9799;SDS011;4939;52.00085300;4.17406100;2023-06-10T00:48:02;13.57;;;9.10;;
9799;SDS011;4939;52.00085300;4.17406100;2023-06-10T00:50:29;13.43;;;8.15;;
9799;SDS011;4939;52.00085300;4.17406100;2023-06-10T00:52:56;11.57;;;8.43;;
9799;SDS011;4939;52.00085300;4.17406100;2023-06-10T00:55:23;10.20;;;8.20;;
9799;SDS011;4939;52.00085300;4.17406100;2023-06-10T00:57:52;10.18;;;7.90;;
9799;SDS011;4939;52.00085300;4.17406100;2023-06-10T01:00:18;10.60;;;8.40;;
9799;SDS011;4939;52.00085300;4.17406100;2023-06-10T01:02:44;13.18;;;8.07;;
9799;SDS011;4939;52.00085300;4.17406100;2023-06-10T01:05:09;12.98;;;8.60;;
9799;SDS011;4939;52.00085300;4.17406100;2023-06-10T01:10:16;12.43;;;7.82;;
9799;SDS011;4939;52.00085300;4.17406100;2023-06-10T01:15:32;12.75;;;7.70;;
9799;SDS011;4939;52.00085300;4.17406100;2023-06-10T01:18:03;10.93;;;7.60;;
9799;SDS011;4939;52.00085300;4.17406100;2023-06-10T01:20:32;12.23;;;7.78;;
9799;SDS011;4939;52.00085300;4.17406100;2023-06-10T01:22:58;12.18;;;7.45;;
9799;SDS011;4939;52.00085300;4.17406100;2023-06-10T01:25:26;13.32;;;7.68;;
9799;SDS011;4939;52.00085300;4.17406100;2023-06-10T01:28:11;14.18;;;7.28;;
9799;SDS011;4939;52.00085300;4.17406100;2023-06-10T01:33:47;11.50;;;7.53;;
9799;SDS011;4939;52.00085300;4.17406100;2023-06-10T01:36:15;10.70;;;6.80;;
9799;SDS011;4939;52.00085300;4.17406100;2023-06-10T01:38:44;13.68;;;6.90;;
9799;SDS011;4939;52.00085300;4.17406100;2023-06-10T01:41:10;10.80;;;7.07;;
9799;SDS011;4939;52.00085300;4.17406100;2023-06-10T01:43:39;10.63;;;7.30;;
9799;SDS011;4939;52.00085300;4.17406100;2023-06-10T01:46:05;14.70;;;7.13;;
9799;SDS011;4939;52.00085300;4.17406100;2023-06-10T01:48:32;11.68;;;7.07;;
9799;SDS011;4939;52.00085300;4.17406100;2023-06-10T01:50:58;9.98;;;6.85;;
9799;SDS011;4939;52.00085300;4.17406100;2023-06-10T01:53:24;11.85;;;6.90;;
9799;SDS011;4939;52.00085300;4.17406100;2023-06-10T01:55:50;11.65;;;7.43;;
9799;SDS011;4939;52.00085300;4.17406100;2023-06-10T01:58:15;12.27;;;7.18;;
9799;SDS011;4939;52.00085300;4.17406100;2023-06-10T02:00:41;10.48;;;6.35;;
9799;SDS011;4939;52.00085300;4.17406100;2023-06-10T02:03:07;9.02;;;6.55;;
9799;SDS011;4939;52.00085300;4.17406100;2023-06-10T02:05:33;12.00;;;7.20;;
9799;SDS011;4939;52.00085300;4.17406100;2023-06-10T02:07:58;9.30;;;6.43;;
9799;SDS011;4939;52.00085300;4.17406100;2023-06-10T02:10:24;13.52;;;6.78;;
9799;SDS011;4939;52.00085300;4.17406100;2023-06-10T02:12:50;11.18;;;6.68;;
9799;SDS011;4939;52.00085300;4.17406100;2023-06-10T02:15:36;12.85;;;6.80;;
9799;SDS011;4939;52.00085300;4.17406100;2023-06-10T02:18:01;11.20;;;6.70;;
9799;SDS011;4939;52.00085300;4.17406100;2023-06-10T02:20:27;12.82;;;7.05;;
9799;SDS011;4939;52.00085300;4.17406100;2023-06-10T02:22:53;10.35;;;7.28;;
9799;SDS011;4939;52.00085300;4.17406100;2023-06-10T02:25:19;11.65;;;6.88;;
9799;SDS011;4939;52.00085300;4.17406100;2023-06-10T02:27:44;14.40;;;8.07;;
9799;SDS011;4939;52.00085300;4.17406100;2023-06-10T02:30:10;12.23;;;6.60;;
9799;SDS011;4939;52.00085300;4.17406100;2023-06-10T02:32:36;12.80;;;6.90;;
9799;SDS011;4939;52.00085300;4.17406100;2023-06-10T02:35:02;12.75;;;7.10;;
9799;SDS011;4939;52.00085300;4.17406100;2023-06-10T02:37:28;12.75;;;7.70;;
9799;SDS011;4939;52.00085300;4.17406100;2023-06-10T02:39:53;9.48;;;6.28;;
9799;SDS011;4939;52.00085300;4.17406100;2023-06-10T02:42:19;11.20;;;6.15;;
9799;SDS011;4939;52.00085300;4.17406100;2023-06-10T02:44:45;12.02;;;6.35;;
9799;SDS011;4939;52.00085300;4.17406100;2023-06-10T02:47:10;10.75;;;6.00;;
9799;SDS011;4939;52.00085300;4.17406100;2023-06-10T02:49:36;10.27;;;6.45;;
9799;SDS011;4939;52.00085300;4.17406100;2023-06-10T02:52:02;11.38;;;6.35;;
9799;SDS011;4939;52.00085300;4.17406100;2023-06-10T02:54:28;10.23;;;6.43;;
9799;SDS011;4939;52.00085300;4.17406100;2023-06-10T02:56:53;13.02;;;6.03;;
9799;SDS011;4939;52.00085300;4.17406100;2023-06-10T02:59:20;9.30;;;6.20;;
9799;SDS011;4939;52.00085300;4.17406100;2023-06-10T03:01:46;10.90;;;5.57;;
9799;SDS011;4939;52.00085300;4.17406100;2023-06-10T03:04:12;11.02;;;5.90;;
9799;SDS011;4939;52.00085300;4.17406100;2023-06-10T03:06:39;11.25;;;6.13;;
9799;SDS011;4939;52.00085300;4.17406100;2023-06-10T03:09:08;11.43;;;6.15;;
9799;SDS011;4939;52.00085300;4.17406100;2023-06-10T03:11:33;12.38;;;5.95;;
9799;SDS011;4939;52.00085300;4.17406100;2023-06-10T03:13:59;14.23;;;6.25;;
9799;SDS011;4939;52.00085300;4.17406100;2023-06-10T03:16:26;10.70;;;5.60;;
9799;SDS011;4939;52.00085300;4.17406100;2023-06-10T03:18:52;9.55;;;6.20;;
9799;SDS011;4939;52.00085300;4.17406100;2023-06-10T03:21:18;11.98;;;5.88;;
9799;SDS011;4939;52.00085300;4.17406100;2023-06-10T03:23:44;10.25;;;5.82;;
9799;SDS011;4939;52.00085300;4.17406100;2023-06-10T03:26:10;12.15;;;6.38;;
9799;SDS011;4939;52.00085300;4.17406100;2023-06-10T03:28:37;10.70;;;6.13;;
9799;SDS011;4939;52.00085300;4.17406100;2023-06-10T03:31:03;9.70;;;6.28;;
9799;SDS011;4939;52.00085300;4.17406100;2023-06-10T03:33:28;10.48;;;6.00;;
9799;SDS011;4939;52.00085300;4.17406100;2023-06-10T03:35:55;10.18;;;6.35;;
9799;SDS011;4939;52.00085300;4.17406100;2023-06-10T03:38:20;12.80;;;6.50;;
9799;SDS011;4939;52.00085300;4.17406100;2023-06-10T03:40:46;9.52;;;6.20;;
9799;SDS011;4939;52.00085300;4.17406100;2023-06-10T03:43:13;9.25;;;5.80;;
9799;SDS011;4939;52.00085300;4.17406100;2023-06-10T03:45:39;12.90;;;6.10;;
9799;SDS011;4939;52.00085300;4.17406100;2023-06-10T03:48:06;9.27;;;5.85;;
9799;SDS011;4939;52.00085300;4.17406100;2023-06-10T03:50:34;10.25;;;5.90;;
9799;SDS011;4939;52.00085300;4.17406100;2023-06-10T03:53:01;10.63;;;5.72;;
9799;SDS011;4939;52.00085300;4.17406100;2023-06-10T03:55:27;10.88;;;5.55;;
9799;SDS011;4939;52.00085300;4.17406100;2023-06-10T03:57:53;10.13;;;5.43;;
9799;SDS011;4939;52.00085300;4.17406100;2023-06-10T04:00:18;11.80;;;5.63;;
9799;SDS011;4939;52.00085300;4.17406100;2023-06-10T04:02:46;10.90;;;5.80;;
9799;SDS011;4939;52.00085300;4.17406100;2023-06-10T04:05:13;11.35;;;5.60;;
9799;SDS011;4939;52.00085300;4.17406100;2023-06-10T04:07:40;8.60;;;5.40;;
9799;SDS011;4939;52.00085300;4.17406100;2023-06-10T04:10:07;10.38;;;6.10;;
9799;SDS011;4939;52.00085300;4.17406100;2023-06-10T04:12:35;9.50;;;5.30;;
9799;SDS011;4939;52.00085300;4.17406100;2023-06-10T04:15:01;8.70;;;5.30;;
9799;SDS011;4939;52.00085300;4.17406100;2023-06-10T04:17:27;8.00;;;4.88;;
9799;SDS011;4939;52.00085300;4.17406100;2023-06-10T04:19:52;13.75;;;6.03;;
9799;SDS011;4939;52.00085300;4.17406100;2023-06-10T04:22:19;10.07;;;5.30;;
9799;SDS011;4939;52.00085300;4.17406100;2023-06-10T04:24:45;11.10;;;5.38;;
9799;SDS011;4939;52.00085300;4.17406100;2023-06-10T04:27:11;9.82;;;5.18;;
9799;SDS011;4939;52.00085300;4.17406100;2023-06-10T04:29:37;9.43;;;5.22;;
9799;SDS011;4939;52.00085300;4.17406100;2023-06-10T04:32:03;8.73;;;5.20;;
9799;SDS011;4939;52.00085300;4.17406100;2023-06-10T04:34:30;10.73;;;5.18;;
9799;SDS011;4939;52.00085300;4.17406100;2023-06-10T04:36:56;14.52;;;5.53;;
9799;SDS011;4939;52.00085300;4.17406100;2023-06-10T04:39:21;8.68;;;5.20;;
9799;SDS011;4939;52.00085300;4.17406100;2023-06-10T04:41:48;9.85;;;5.25;;
9799;SDS011;4939;52.00085300;4.17406100;2023-06-10T04:44:13;10.38;;;5.57;;
9799;SDS011;4939;52.00085300;4.17406100;2023-06-10T04:46:39;8.43;;;5.05;;
9799;SDS011;4939;52.00085300;4.17406100;2023-06-10T04:49:05;10.43;;;4.80;;
9799;SDS011;4939;52.00085300;4.17406100;2023-06-10T04:51:30;8.35;;;5.00;;
9799;SDS011;4939;52.00085300;4.17406100;2023-06-10T04:53:59;8.90;;;5.10;;
9799;SDS011;4939;52.00085300;4.17406100;2023-06-10T04:56:29;9.00;;;5.25;;
9799;SDS011;4939;52.00085300;4.17406100;2023-06-10T04:58:58;9.57;;;5.07;;
9799;SDS011;4939;52.00085300;4.17406100;2023-06-10T05:01:25;13.65;;;5.18;;
9799;SDS011;4939;52.00085300;4.17406100;2023-06-10T05:03:52;8.82;;;4.93;;
9799;SDS011;4939;52.00085300;4.17406100;2023-06-10T05:06:18;10.20;;;5.50;;
9799;SDS011;4939;52.00085300;4.17406100;2023-06-10T05:08:44;10.30;;;5.05;;
9799;SDS011;4939;52.00085300;4.17406100;2023-06-10T05:11:09;9.40;;;5.07;;
9799;SDS011;4939;52.00085300;4.17406100;2023-06-10T05:13:35;10.10;;;5.07;;
9799;SDS011;4939;52.00085300;4.17406100;2023-06-10T05:16:01;9.75;;;5.13;;
9799;SDS011;4939;52.00085300;4.17406100;2023-06-10T05:18:27;11.90;;;5.07;;
9799;SDS011;4939;52.00085300;4.17406100;2023-06-10T05:20:53;9.68;;;4.65;;
9799;SDS011;4939;52.00085300;4.17406100;2023-06-10T05:23:19;9.95;;;5.13;;
9799;SDS011;4939;52.00085300;4.17406100;2023-06-10T05:25:45;9.65;;;5.18;;
9799;SDS011;4939;52.00085300;4.17406100;2023-06-10T05:28:11;11.15;;;5.10;;
9799;SDS011;4939;52.00085300;4.17406100;2023-06-10T05:30:36;8.45;;;4.97;;
9799;SDS011;4939;52.00085300;4.17406100;2023-06-10T05:33:03;10.27;;;5.18;;
9799;SDS011;4939;52.00085300;4.17406100;2023-06-10T05:35:29;10.65;;;5.05;;
9799;SDS011;4939;52.00085300;4.17406100;2023-06-10T05:37:55;9.50;;;4.88;;
9799;SDS011;4939;52.00085300;4.17406100;2023-06-10T05:40:21;8.82;;;5.00;;
9799;SDS011;4939;52.00085300;4.17406100;2023-06-10T05:42:49;13.95;;;5.50;;
9799;SDS011;4939;52.00085300;4.17406100;2023-06-10T05:45:15;9.68;;;5.05;;
9799;SDS011;4939;52.00085300;4.17406100;2023-06-10T05:47:41;10.90;;;5.47;;
9799;SDS011;4939;52.00085300;4.17406100;2023-06-10T05:50:09;11.20;;;5.20;;
9799;SDS011;4939;52.00085300;4.17406100;2023-06-10T05:52:35;10.50;;;5.13;;
9799;SDS011;4939;52.00085300;4.17406100;2023-06-10T05:55:02;10.43;;;5.30;;
9799;SDS011;4939;52.00085300;4.17406100;2023-06-10T05:57:28;13.32;;;5.10;;
9799;SDS011;4939;52.00085300;4.17406100;2023-06-10T05:59:56;9.68;;;5.35;;
9799;SDS011;4939;52.00085300;4.17406100;2023-06-10T06:02:22;11.07;;;5.22;;
9799;SDS011;4939;52.00085300;4.17406100;2023-06-10T06:04:48;12.60;;;5.32;;
9799;SDS011;4939;52.00085300;4.17406100;2023-06-10T06:07:13;10.63;;;5.25;;
9799;SDS011;4939;52.00085300;4.17406100;2023-06-10T06:09:39;10.65;;;5.68;;
9799;SDS011;4939;52.00085300;4.17406100;2023-06-10T06:12:05;12.40;;;5.18;;
9799;SDS011;4939;52.00085300;4.17406100;2023-06-10T06:14:37;7.90;;;4.88;;
9799;SDS011;4939;52.00085300;4.17406100;2023-06-10T06:17:04;10.60;;;5.20;;
9799;SDS011;4939;52.00085300;4.17406100;2023-06-10T06:19:31;10.95;;;5.35;;
9799;SDS011;4939;52.00085300;4.17406100;2023-06-10T06:21:56;10.10;;;5.35;;
9799;SDS011;4939;52.00085300;4.17406100;2023-06-10T06:24:22;10.55;;;5.50;;
9799;SDS011;4939;52.00085300;4.17406100;2023-06-10T06:26:48;12.52;;;5.55;;
9799;SDS011;4939;52.00085300;4.17406100;2023-06-10T06:29:13;12.68;;;5.60;;
9799;SDS011;4939;52.00085300;4.17406100;2023-06-10T06:31:41;9.85;;;5.60;;
9799;SDS011;4939;52.00085300;4.17406100;2023-06-10T06:34:06;11.70;;;5.70;;
9799;SDS011;4939;52.00085300;4.17406100;2023-06-10T06:36:38;8.95;;;5.30;;
9799;SDS011;4939;52.00085300;4.17406100;2023-06-10T06:39:04;11.68;;;5.10;;
9799;SDS011;4939;52.00085300;4.17406100;2023-06-10T06:41:30;11.35;;;5.22;;
9799;SDS011;4939;52.00085300;4.17406100;2023-06-10T06:43:56;12.35;;;6.13;;
9799;SDS011;4939;52.00085300;4.17406100;2023-06-10T06:46:22;9.98;;;5.10;;
9799;SDS011;4939;52.00085300;4.17406100;2023-06-10T06:48:47;20.73;;;5.97;;
9799;SDS011;4939;52.00085300;4.17406100;2023-06-10T06:51:13;11.23;;;5.85;;
9799;SDS011;4939;52.00085300;4.17406100;2023-06-10T06:53:39;10.70;;;5.32;;
9799;SDS011;4939;52.00085300;4.17406100;2023-06-10T06:56:10;11.90;;;5.97;;
9799;SDS011;4939;52.00085300;4.17406100;2023-06-10T06:58:36;9.57;;;5.63;;
9799;SDS011;4939;52.00085300;4.17406100;2023-06-10T07:01:01;9.13;;;5.88;;
9799;SDS011;4939;52.00085300;4.17406100;2023-06-10T07:03:27;11.10;;;5.75;;
9799;SDS011;4939;52.00085300;4.17406100;2023-06-10T07:05:54;12.00;;;5.47;;
9799;SDS011;4939;52.00085300;4.17406100;2023-06-10T07:08:20;10.20;;;6.13;;
9799;SDS011;4939;52.00085300;4.17406100;2023-06-10T07:10:45;15.70;;;6.10;;
9799;SDS011;4939;52.00085300;4.17406100;2023-06-10T07:13:11;11.90;;;5.65;;
9799;SDS011;4939;52.00085300;4.17406100;2023-06-10T07:15:37;10.55;;;5.75;;
9799;SDS011;4939;52.00085300;4.17406100;2023-06-10T07:18:05;8.20;;;5.68;;
9799;SDS011;4939;52.00085300;4.17406100;2023-06-10T07:20:30;10.40;;;6.03;;
9799;SDS011;4939;52.00085300;4.17406100;2023-06-10T07:22:56;14.40;;;5.55;;
9799;SDS011;4939;52.00085300;4.17406100;2023-06-10T07:25:21;12.82;;;5.90;;
9799;SDS011;4939;52.00085300;4.17406100;2023-06-10T07:27:47;10.40;;;5.45;;
9799;SDS011;4939;52.00085300;4.17406100;2023-06-10T07:30:13;13.13;;;6.20;;
9799;SDS011;4939;52.00085300;4.17406100;2023-06-10T07:32:38;11.20;;;6.55;;
9799;SDS011;4939;52.00085300;4.17406100;2023-06-10T07:35:06;11.93;;;5.32;;
9799;SDS011;4939;52.00085300;4.17406100;2023-06-10T07:37:33;11.75;;;6.05;;
9799;SDS011;4939;52.00085300;4.17406100;2023-06-10T07:39:59;10.10;;;5.50;;
9799;SDS011;4939;52.00085300;4.17406100;2023-06-10T07:42:24;10.32;;;5.55;;
9799;SDS011;4939;52.00085300;4.17406100;2023-06-10T07:44:50;9.48;;;6.10;;
9799;SDS011;4939;52.00085300;4.17406100;2023-06-10T07:47:16;10.70;;;5.78;;
9799;SDS011;4939;52.00085300;4.17406100;2023-06-10T07:49:42;11.52;;;6.18;;
9799;SDS011;4939;52.00085300;4.17406100;2023-06-10T07:52:07;10.48;;;5.70;;
9799;SDS011;4939;52.00085300;4.17406100;2023-06-10T07:54:33;12.48;;;5.80;;
9799;SDS011;4939;52.00085300;4.17406100;2023-06-10T07:56:59;10.43;;;5.68;;
9799;SDS011;4939;52.00085300;4.17406100;2023-06-10T07:59:24;11.52;;;5.63;;
9799;SDS011;4939;52.00085300;4.17406100;2023-06-10T08:01:51;10.27;;;5.85;;
9799;SDS011;4939;52.00085300;4.17406100;2023-06-10T08:04:17;9.80;;;5.68;;
9799;SDS011;4939;52.00085300;4.17406100;2023-06-10T08:06:43;9.23;;;6.00;;
9799;SDS011;4939;52.00085300;4.17406100;2023-06-10T08:09:09;12.13;;;6.20;;
9799;SDS011;4939;52.00085300;4.17406100;2023-06-10T08:11:34;11.93;;;5.57;;
9799;SDS011;4939;52.00085300;4.17406100;2023-06-10T08:14:00;13.27;;;6.38;;
9799;SDS011;4939;52.00085300;4.17406100;2023-06-10T08:16:26;12.35;;;5.97;;
9799;SDS011;4939;52.00085300;4.17406100;2023-06-10T08:18:51;9.32;;;5.93;;
9799;SDS011;4939;52.00085300;4.17406100;2023-06-10T08:21:18;8.50;;;5.85;;
9799;SDS011;4939;52.00085300;4.17406100;2023-06-10T08:23:44;9.48;;;5.90;;
9799;SDS011;4939;52.00085300;4.17406100;2023-06-10T08:26:10;9.02;;;5.60;;
9799;SDS011;4939;52.00085300;4.17406100;2023-06-10T08:28:35;10.20;;;5.82;;
9799;SDS011;4939;52.00085300;4.17406100;2023-06-10T08:31:01;12.50;;;5.75;;
9799;SDS011;4939;52.00085300;4.17406100;2023-06-10T08:33:27;8.52;;;5.53;;
9799;SDS011;4939;52.00085300;4.17406100;2023-06-10T08:35:53;9.68;;;5.55;;
9799;SDS011;4939;52.00085300;4.17406100;2023-06-10T08:38:20;7.90;;;5.32;;
9799;SDS011;4939;52.00085300;4.17406100;2023-06-10T08:40:46;9.20;;;5.75;;
9799;SDS011;4939;52.00085300;4.17406100;2023-06-10T08:43:17;13.18;;;5.47;;
9799;SDS011;4939;52.00085300;4.17406100;2023-06-10T08:45:49;9.05;;;5.85;;
9799;SDS011;4939;52.00085300;4.17406100;2023-06-10T08:48:16;7.93;;;5.18;;
9799;SDS011;4939;52.00085300;4.17406100;2023-06-10T08:50:44;8.90;;;5.57;;
9799;SDS011;4939;52.00085300;4.17406100;2023-06-10T08:53:10;8.80;;;5.57;;
9799;SDS011;4939;52.00085300;4.17406100;2023-06-10T08:55:41;8.70;;;5.30;;
9799;SDS011;4939;52.00085300;4.17406100;2023-06-10T08:58:11;9.73;;;5.57;;
9799;SDS011;4939;52.00085300;4.17406100;2023-06-10T09:00:38;8.52;;;5.25;;
9799;SDS011;4939;52.00085300;4.17406100;2023-06-10T09:03:04;10.02;;;5.20;;
9799;SDS011;4939;52.00085300;4.17406100;2023-06-10T09:05:32;8.57;;;5.50;;
9799;SDS011;4939;52.00085300;4.17406100;2023-06-10T09:07:59;8.75;;;5.32;;
9799;SDS011;4939;52.00085300;4.17406100;2023-06-10T09:10:26;9.20;;;4.72;;
9799;SDS011;4939;52.00085300;4.17406100;2023-06-10T09:12:52;9.00;;;5.30;;
9799;SDS011;4939;52.00085300;4.17406100;2023-06-10T09:15:18;12.65;;;5.85;;
9799;SDS011;4939;52.00085300;4.17406100;2023-06-10T09:17:43;8.57;;;5.35;;
9799;SDS011;4939;52.00085300;4.17406100;2023-06-10T09:20:10;7.32;;;5.38;;
9799;SDS011;4939;52.00085300;4.17406100;2023-06-10T09:22:36;8.45;;;5.15;;
9799;SDS011;4939;52.00085300;4.17406100;2023-06-10T09:25:02;10.27;;;5.25;;
9799;SDS011;4939;52.00085300;4.17406100;2023-06-10T09:27:34;9.00;;;5.35;;
9799;SDS011;4939;52.00085300;4.17406100;2023-06-10T09:32:55;8.35;;;5.35;;
9799;SDS011;4939;52.00085300;4.17406100;2023-06-10T09:35:23;8.75;;;4.93;;
9799;SDS011;4939;52.00085300;4.17406100;2023-06-10T09:37:51;7.93;;;5.47;;
9799;SDS011;4939;52.00085300;4.17406100;2023-06-10T09:40:17;7.47;;;4.88;;
9799;SDS011;4939;52.00085300;4.17406100;2023-06-10T09:42:43;7.28;;;5.18;;
9799;SDS011;4939;52.00085300;4.17406100;2023-06-10T09:45:09;8.07;;;5.47;;
9799;SDS011;4939;52.00085300;4.17406100;2023-06-10T09:47:34;9.88;;;5.65;;
9799;SDS011;4939;52.00085300;4.17406100;2023-06-10T09:50:00;8.20;;;5.10;;
9799;SDS011;4939;52.00085300;4.17406100;2023-06-10T09:52:27;12.32;;;5.47;;
9799;SDS011;4939;52.00085300;4.17406100;2023-06-10T09:54:58;8.30;;;5.25;;
9799;SDS011;4939;52.00085300;4.17406100;2023-06-10T09:57:31;8.55;;;5.32;;
9799;SDS011;4939;52.00085300;4.17406100;2023-06-10T09:59:58;7.93;;;5.05;;
9799;SDS011;4939;52.00085300;4.17406100;2023-06-10T10:02:24;14.02;;;5.20;;
9799;SDS011;4939;52.00085300;4.17406100;2023-06-10T10:04:49;7.82;;;5.10;;
9799;SDS011;4939;52.00085300;4.17406100;2023-06-10T10:07:15;9.05;;;5.68;;
9799;SDS011;4939;52.00085300;4.17406100;2023-06-10T10:09:41;9.75;;;5.20;;
9799;SDS011;4939;52.00085300;4.17406100;2023-06-10T10:14:37;7.93;;;5.10;;
9799;SDS011;4939;52.00085300;4.17406100;2023-06-10T10:17:07;5.93;;;4.68;;
9799;SDS011;4939;52.00085300;4.17406100;2023-06-10T10:19:50;7.55;;;4.95;;
9799;SDS011;4939;52.00085300;4.17406100;2023-06-10T10:22:25;7.57;;;5.00;;
9799;SDS011;4939;52.00085300;4.17406100;2023-06-10T10:24:55;9.95;;;4.97;;
9799;SDS011;4939;52.00085300;4.17406100;2023-06-10T10:27:44;8.35;;;5.55;;
9799;SDS011;4939;52.00085300;4.17406100;2023-06-10T10:30:21;7.25;;;4.90;;
9799;SDS011;4939;52.00085300;4.17406100;2023-06-10T10:32:52;7.10;;;4.97;;
9799;SDS011;4939;52.00085300;4.17406100;2023-06-10T10:35:21;9.30;;;5.30;;
9799;SDS011;4939;52.00085300;4.17406100;2023-06-10T10:37:48;6.30;;;4.47;;
9799;SDS011;4939;52.00085300;4.17406100;2023-06-10T10:40:16;6.78;;;4.93;;
9799;SDS011;4939;52.00085300;4.17406100;2023-06-10T10:42:42;8.77;;;5.45;;
9799;SDS011;4939;52.00085300;4.17406100;2023-06-10T10:45:08;7.00;;;5.10;;
9799;SDS011;4939;52.00085300;4.17406100;2023-06-10T10:47:35;7.20;;;4.85;;
9799;SDS011;4939;52.00085300;4.17406100;2023-06-10T10:50:02;11.02;;;5.00;;
9799;SDS011;4939;52.00085300;4.17406100;2023-06-10T10:55:21;6.28;;;4.95;;
9799;SDS011;4939;52.00085300;4.17406100;2023-06-10T10:57:54;8.50;;;5.50;;
9799;SDS011;4939;52.00085300;4.17406100;2023-06-10T11:00:27;9.38;;;5.10;;
9799;SDS011;4939;52.00085300;4.17406100;2023-06-10T11:03:04;9.02;;;5.20;;
9799;SDS011;4939;52.00085300;4.17406100;2023-06-10T11:08:15;9.57;;;5.27;;
9799;SDS011;4939;52.00085300;4.17406100;2023-06-10T11:11:00;7.93;;;5.03;;
9799;SDS011;4939;52.00085300;4.17406100;2023-06-10T11:13:26;8.57;;;5.20;;
9799;SDS011;4939;52.00085300;4.17406100;2023-06-10T11:15:53;8.45;;;5.78;;
9799;SDS011;4939;52.00085300;4.17406100;2023-06-10T11:18:26;7.78;;;5.25;;
9799;SDS011;4939;52.00085300;4.17406100;2023-06-10T11:20:54;10.07;;;5.50;;
9799;SDS011;4939;52.00085300;4.17406100;2023-06-10T11:23:45;9.25;;;4.82;;
9799;SDS011;4939;52.00085300;4.17406100;2023-06-10T11:33:53;7.15;;;5.63;;
9799;SDS011;4939;52.00085300;4.17406100;2023-06-10T11:36:32;9.68;;;5.40;;
9799;SDS011;4939;52.00085300;4.17406100;2023-06-10T11:39:00;6.97;;;5.20;;
9799;SDS011;4939;52.00085300;4.17406100;2023-06-10T11:41:34;6.78;;;4.82;;
9799;SDS011;4939;52.00085300;4.17406100;2023-06-10T11:44:01;7.20;;;5.03;;
9799;SDS011;4939;52.00085300;4.17406100;2023-06-10T11:46:33;6.20;;;5.28;;
9799;SDS011;4939;52.00085300;4.17406100;2023-06-10T11:49:00;8.32;;;5.35;;
9799;SDS011;4939;52.00085300;4.17406100;2023-06-10T11:51:28;7.55;;;5.40;;
9799;SDS011;4939;52.00085300;4.17406100;2023-06-10T11:53:55;7.93;;;5.35;;
9799;SDS011;4939;52.00085300;4.17406100;2023-06-10T11:56:21;7.95;;;5.15;;
9799;SDS011;4939;52.00085300;4.17406100;2023-06-10T11:59:01;8.30;;;5.55;;
9799;SDS011;4939;52.00085300;4.17406100;2023-06-10T12:01:29;6.50;;;5.28;;
9799;SDS011;4939;52.00085300;4.17406100;2023-06-10T12:04:08;7.43;;;5.70;;
9799;SDS011;4939;52.00085300;4.17406100;2023-06-10T12:11:51;7.40;;;5.53;;
9799;SDS011;4939;52.00085300;4.17406100;2023-06-10T12:17:19;8.20;;;5.63;;
9799;SDS011;4939;52.00085300;4.17406100;2023-06-10T12:20:06;8.95;;;5.97;;
9799;SDS011;4939;52.00085300;4.17406100;2023-06-10T12:22:40;8.52;;;5.65;;
9799;SDS011;4939;52.00085300;4.17406100;2023-06-10T12:25:08;8.75;;;5.60;;
9799;SDS011;4939;52.00085300;4.17406100;2023-06-10T12:27:34;8.98;;;5.95;;
9799;SDS011;4939;52.00085300;4.17406100;2023-06-10T12:30:04;7.63;;;5.90;;
9799;SDS011;4939;52.00085300;4.17406100;2023-06-10T12:32:38;6.88;;;5.13;;
9799;SDS011;4939;52.00085300;4.17406100;2023-06-10T12:35:06;7.85;;;5.47;;
9799;SDS011;4939;52.00085300;4.17406100;2023-06-10T12:37:32;7.20;;;5.25;;
9799;SDS011;4939;52.00085300;4.17406100;2023-06-10T12:40:02;6.78;;;5.18;;
9799;SDS011;4939;52.00085300;4.17406100;2023-06-10T12:42:29;6.93;;;5.28;;
9799;SDS011;4939;52.00085300;4.17406100;2023-06-10T12:44:55;8.27;;;5.60;;
9799;SDS011;4939;52.00085300;4.17406100;2023-06-10T12:47:34;8.35;;;5.53;;
9799;SDS011;4939;52.00085300;4.17406100;2023-06-10T12:50:03;7.72;;;5.50;;
9799;SDS011;4939;52.00085300;4.17406100;2023-06-10T12:52:31;6.78;;;5.47;;
9799;SDS011;4939;52.00085300;4.17406100;2023-06-10T12:54:57;6.50;;;5.60;;
9799;SDS011;4939;52.00085300;4.17406100;2023-06-10T12:57:23;7.05;;;5.03;;
9799;SDS011;4939;52.00085300;4.17406100;2023-06-10T12:59:49;9.18;;;5.25;;
9799;SDS011;4939;52.00085300;4.17406100;2023-06-10T13:02:18;7.25;;;5.35;;
9799;SDS011;4939;52.00085300;4.17406100;2023-06-10T13:04:45;8.13;;;5.40;;
9799;SDS011;4939;52.00085300;4.17406100;2023-06-10T13:07:11;7.25;;;5.20;;
9799;SDS011;4939;52.00085300;4.17406100;2023-06-10T13:09:37;9.85;;;5.40;;
9799;SDS011;4939;52.00085300;4.17406100;2023-06-10T13:12:03;7.93;;;5.10;;
9799;SDS011;4939;52.00085300;4.17406100;2023-06-10T13:14:29;6.32;;;5.13;;
9799;SDS011;4939;52.00085300;4.17406100;2023-06-10T13:16:56;8.75;;;5.50;;
9799;SDS011;4939;52.00085300;4.17406100;2023-06-10T13:19:22;6.82;;;5.47;;
9799;SDS011;4939;52.00085300;4.17406100;2023-06-10T13:21:47;7.00;;;5.20;;
9799;SDS011;4939;52.00085300;4.17406100;2023-06-10T13:24:13;8.60;;;5.30;;
9799;SDS011;4939;52.00085300;4.17406100;2023-06-10T13:26:39;7.38;;;5.38;;
9799;SDS011;4939;52.00085300;4.17406100;2023-06-10T13:29:05;6.75;;;5.40;;
9799;SDS011;4939;52.00085300;4.17406100;2023-06-10T13:31:30;7.50;;;5.28;;
9799;SDS011;4939;52.00085300;4.17406100;2023-06-10T13:33:57;9.05;;;5.13;;
9799;SDS011;4939;52.00085300;4.17406100;2023-06-10T13:36:23;8.07;;;5.55;;
9799;SDS011;4939;52.00085300;4.17406100;2023-06-10T13:38:49;7.65;;;5.38;;
9799;SDS011;4939;52.00085300;4.17406100;2023-06-10T13:41:15;6.32;;;5.20;;